Time;durP1;ratioP1;P1;durP2;ratioP2;P2;SDS_P1;SDS_P2;PMS_P1;PMS_P2;Temp;Humidity;BMP_temperature;BMP_pressure;BME280_temperature;BME280_humidity;BME280_pressure;Samples;Min_cycle;Max_cycle;Signal;HPM_P1;HPM_P2
2022/09/25 00:00:20;;;;;;;;;;;7.80;99.90;;;;;;5050724;28;19929;-68
2022/09/25 00:02:46;;;;;;;;;;;7.80;99.90;;;;;;5053400;28;20011;-67
2022/09/25 00:05:11;;;;;;;;;;;7.70;99.90;;;;;;5051040;28;19935;-68
2022/09/25 00:07:37;;;;;;;;;;;7.70;99.90;;;;;;5051683;28;20399;-68
2022/09/25 00:10:03;;;;;;;;;;;7.70;99.90;;;;;;5049826;28;19940;-67
2022/09/25 00:12:28;;;;;;;;;;;7.70;99.90;;;;;;5051035;28;20043;-68
2022/09/25 00:14:54;;;;;;;;;;;7.60;99.90;;;;;;5048302;28;19925;-68
2022/09/25 00:17:20;;;;;;;;;;;7.60;99.90;;;;;;5049145;28;19921;-68
2022/09/25 00:19:51;;;;;;;;;;;7.70;99.90;;;;;;5045062;28;19932;-68
2022/09/25 00:22:17;;;;;;;;;;;7.60;99.90;;;;;;5036086;28;20050;-67
2022/09/25 00:24:43;;;;;;;;;;;7.60;99.90;;;;;;5049071;28;20023;-68
2022/09/25 00:27:08;;;;;;;;;;;7.60;99.90;;;;;;5048507;28;19933;-68
2022/09/25 00:29:37;;;;;;;;;;;7.50;99.90;;;;;;5040595;28;20405;-68
2022/09/25 00:32:05;;;;;;;;;;;7.50;99.90;;;;;;5041822;28;19921;-68
2022/09/25 00:34:31;;;;;;;;;;;7.50;99.90;;;;;;5044736;28;20294;-67
2022/09/25 00:36:56;;;;;;;;;;;7.40;99.90;;;;;;5027343;28;19928;-68
2022/09/25 00:39:22;;;;;;;;;;;7.40;99.90;;;;;;5041863;28;19947;-68
2022/09/25 00:41:47;;;;;;;;;;;7.40;99.90;;;;;;5042243;28;20476;-68
2022/09/25 00:44:31;;;;;;;;;;;7.40;99.90;;;;;;5030653;28;19925;-67
2022/09/25 00:46:57;;;;;;;;;;;7.40;99.90;;;;;;5049239;28;19982;-68
2022/09/25 00:49:24;;;;;;;;;;;7.40;99.90;;;;;;5041823;28;19932;-67
2022/09/25 00:51:50;;;;;;;;;;;7.30;99.90;;;;;;5046174;28;19925;-68
2022/09/25 00:54:18;;;;;;;;;;;7.30;99.90;;;;;;5049172;28;19928;-68
2022/09/25 00:56:46;;;;;;;;;;;7.30;99.90;;;;;;5050892;28;19982;-68
2022/09/25 00:59:15;;;;;;;;;;;7.30;99.90;;;;;;5045096;28;20011;-67
2022/09/25 01:01:40;;;;;;;;;;;7.30;99.90;;;;;;5050299;28;20255;-68
2022/09/25 01:04:06;;;;;;;;;;;7.20;99.90;;;;;;5051247;28;19921;-67
2022/09/25 01:06:32;;;;;;;;;;;7.20;99.90;;;;;;5048910;28;19975;-68
2022/09/25 01:08:58;;;;;;;;;;;7.20;99.90;;;;;;5050093;28;20653;-68
2022/09/25 01:11:24;;;;;;;;;;;7.10;99.90;;;;;;5049430;28;19964;-67
2022/09/25 01:13:52;;;;;;;;;;;7.10;99.90;;;;;;5048437;28;19974;-67
2022/09/25 01:16:48;;;;;;;;;;;7.10;99.90;;;;;;5046212;28;19928;-68
2022/09/25 01:19:13;;;;;;;;;;;7.10;99.90;;;;;;5015575;28;19920;-68
2022/09/25 01:21:59;;;;;;;;;;;7.00;99.90;;;;;;5051947;28;20535;-68
2022/09/25 01:24:36;;;;;;;;;;;7.00;99.90;;;;;;5049783;28;19970;-68
2022/09/25 01:27:05;;;;;;;;;;;7.10;99.90;;;;;;5044825;28;21361;-67
2022/09/25 01:29:43;;;;;;;;;;;7.20;99.90;;;;;;5038886;28;20393;-68
2022/09/25 01:32:16;;;;;;;;;;;7.20;99.90;;;;;;5044063;28;19921;-68
2022/09/25 01:35:11;;;;;;;;;;;7.10;99.90;;;;;;5047013;28;19920;-68
2022/09/25 01:37:39;;;;;;;;;;;7.10;99.90;;;;;;5030872;28;19921;-68
2022/09/25 01:40:04;;;;;;;;;;;7.00;99.90;;;;;;5041457;28;19932;-68
2022/09/25 01:42:35;;;;;;;;;;;7.00;99.90;;;;;;5044069;28;20345;-68
2022/09/25 01:45:06;;;;;;;;;;;7.00;99.90;;;;;;5029201;28;20003;-68
2022/09/25 01:47:34;;;;;;;;;;;6.90;99.90;;;;;;5046400;28;19925;-67
2022/09/25 01:50:05;;;;;;;;;;;6.90;99.90;;;;;;5053441;28;20008;-68
2022/09/25 01:52:31;;;;;;;;;;;6.90;99.90;;;;;;5050172;28;19921;-68
2022/09/25 01:55:01;;;;;;;;;;;6.80;99.90;;;;;;5049138;28;19921;-67
2022/09/25 01:57:27;;;;;;;;;;;6.80;99.90;;;;;;5049769;28;19974;-68
2022/09/25 02:00:08;;;;;;;;;;;6.80;99.90;;;;;;5049227;28;20013;-68
2022/09/25 02:02:39;;;;;;;;;;;6.80;99.90;;;;;;5050283;28;19925;-67
2022/09/25 02:05:11;;;;;;;;;;;6.80;99.90;;;;;;5047007;28;19921;-67
2022/09/25 02:07:38;;;;;;;;;;;6.80;99.90;;;;;;5049985;28;20066;-68
2022/09/25 02:10:07;;;;;;;;;;;6.70;99.90;;;;;;5046121;28;19929;-68
2022/09/25 02:12:35;;;;;;;;;;;6.70;99.90;;;;;;5049335;28;20449;-67
2022/09/25 02:15:07;;;;;;;;;;;6.70;99.90;;;;;;5044993;28;19921;-67
2022/09/25 02:20:40;;;;;;;;;;;6.70;99.90;;;;;;5047375;28;19924;-68
2022/09/25 02:23:23;;;;;;;;;;;6.70;99.90;;;;;;5046691;28;19955;-68
2022/09/25 02:25:54;;;;;;;;;;;6.70;99.90;;;;;;5044091;28;19975;-68
2022/09/25 02:28:20;;;;;;;;;;;6.60;99.90;;;;;;5046737;28;19960;-67
2022/09/25 02:30:46;;;;;;;;;;;6.60;99.90;;;;;;5039034;28;20015;-68
2022/09/25 02:33:12;;;;;;;;;;;6.60;99.90;;;;;;5043309;28;19927;-67
2022/09/25 02:35:38;;;;;;;;;;;6.60;99.90;;;;;;5041545;28;19921;-67
2022/09/25 02:38:04;;;;;;;;;;;6.60;99.90;;;;;;5048225;28;20388;-68
2022/09/25 02:40:40;;;;;;;;;;;6.60;99.90;;;;;;5051232;28;19938;-68
2022/09/25 02:43:24;;;;;;;;;;;6.60;99.90;;;;;;5032401;28;20390;-68
2022/09/25 02:46:12;;;;;;;;;;;6.50;99.90;;;;;;5046442;28;19967;-67
2022/09/25 02:48:43;;;;;;;;;;;6.50;99.90;;;;;;5042032;28;20015;-68
2022/09/25 02:51:28;;;;;;;;;;;6.40;99.90;;;;;;5048373;28;20430;-67
2022/09/25 02:54:12;;;;;;;;;;;6.40;99.90;;;;;;5050413;23;20058;-68
2022/09/25 02:56:58;;;;;;;;;;;6.40;99.90;;;;;;5053131;28;19931;-68
2022/09/25 02:59:29;;;;;;;;;;;6.30;99.90;;;;;;5048852;28;20015;-68
2022/09/25 03:01:55;;;;;;;;;;;6.30;99.90;;;;;;5051558;28;19932;-67
2022/09/25 03:04:22;;;;;;;;;;;6.30;99.90;;;;;;5051537;28;19921;-68
2022/09/25 03:06:48;;;;;;;;;;;6.30;99.90;;;;;;5049775;28;19920;-68
2022/09/25 03:09:14;;;;;;;;;;;6.20;99.90;;;;;;5050172;28;19925;-67
2022/09/25 03:11:41;;;;;;;;;;;6.20;99.90;;;;;;5050678;28;19925;-68
2022/09/25 03:14:06;;;;;;;;;;;6.20;99.90;;;;;;5050333;28;20034;-68
2022/09/25 03:16:49;;;;;;;;;;;6.20;99.90;;;;;;5034495;28;20445;-67
2022/09/25 03:19:14;;;;;;;;;;;6.20;99.90;;;;;;5051934;28;19921;-68
2022/09/25 03:21:40;;;;;;;;;;;6.10;99.90;;;;;;5049164;28;19936;-68
2022/09/25 03:24:06;;;;;;;;;;;6.10;99.90;;;;;;5048066;28;19971;-68
2022/09/25 03:26:31;;;;;;;;;;;6.10;99.90;;;;;;5041301;28;19966;-67
2022/09/25 03:29:01;;;;;;;;;;;6.10;99.90;;;;;;5058135;28;19920;-68
2022/09/25 03:31:27;;;;;;;;;;;6.10;99.90;;;;;;5047537;28;19978;-68
2022/09/25 03:33:53;;;;;;;;;;;6.10;99.90;;;;;;5033317;28;19920;-68
2022/09/25 03:36:19;;;;;;;;;;;6.00;99.90;;;;;;5033858;28;19928;-68
2022/09/25 03:38:49;;;;;;;;;;;6.00;99.90;;;;;;5048950;28;19967;-68
2022/09/25 03:41:18;;;;;;;;;;;6.00;99.90;;;;;;5049887;28;19928;-67
2022/09/25 03:43:46;;;;;;;;;;;6.00;99.90;;;;;;5037348;28;20008;-67
2022/09/25 03:46:13;;;;;;;;;;;6.00;99.90;;;;;;5060578;28;19925;-68
2022/09/25 03:48:39;;;;;;;;;;;6.00;99.90;;;;;;5047959;28;20305;-68
2022/09/25 03:51:05;;;;;;;;;;;6.00;99.90;;;;;;5050689;28;19928;-67
2022/09/25 03:53:32;;;;;;;;;;;6.00;99.90;;;;;;5048989;28;20317;-68
2022/09/25 03:55:58;;;;;;;;;;;6.00;99.90;;;;;;5046175;28;19987;-68
2022/09/25 03:58:23;;;;;;;;;;;6.00;99.90;;;;;;5048574;28;19921;-68
2022/09/25 04:00:49;;;;;;;;;;;6.00;99.90;;;;;;5050979;28;19936;-68
2022/09/25 04:03:15;;;;;;;;;;;6.10;99.90;;;;;;5060302;28;20436;-68
2022/09/25 04:05:41;;;;;;;;;;;6.20;99.90;;;;;;5049113;28;19924;-68
2022/09/25 04:08:06;;;;;;;;;;;6.00;99.90;;;;;;5051289;28;20397;-67
2022/09/25 04:10:32;;;;;;;;;;;6.00;99.90;;;;;;5050125;28;19928;-68
2022/09/25 04:12:58;;;;;;;;;;;6.00;99.90;;;;;;5048713;28;20380;-68
2022/09/25 04:15:23;;;;;;;;;;;6.00;99.90;;;;;;5049025;28;19924;-68
2022/09/25 04:17:49;;;;;;;;;;;6.30;99.90;;;;;;5051824;28;20001;-68
2022/09/25 04:20:15;;;;;;;;;;;6.20;99.90;;;;;;5047530;28;20298;-68
2022/09/25 04:22:40;;;;;;;;;;;6.30;99.90;;;;;;5048482;28;19925;-68
2022/09/25 04:25:06;;;;;;;;;;;6.30;99.90;;;;;;5047708;28;19936;-68
2022/09/25 04:27:31;;;;;;;;;;;6.20;99.90;;;;;;5049854;28;19921;-68
2022/09/25 04:29:57;;;;;;;;;;;6.40;99.90;;;;;;5051090;28;19999;-68
2022/09/25 04:35:07;;;;;;;;;;;6.30;99.90;;;;;;5045670;28;20007;-67
2022/09/25 04:37:32;;;;;;;;;;;6.40;99.90;;;;;;5049010;28;20036;-68
2022/09/25 04:39:58;;;;;;;;;;;6.30;99.90;;;;;;5048769;28;19920;-68
2022/09/25 04:42:24;;;;;;;;;;;6.30;99.90;;;;;;5047119;28;20382;-68
2022/09/25 04:44:53;;;;;;;;;;;6.30;99.90;;;;;;5048475;28;19975;-68
2022/09/25 04:47:19;;;;;;;;;;;6.30;99.90;;;;;;5048824;28;19932;-67
2022/09/25 04:49:45;;;;;;;;;;;6.20;99.90;;;;;;5047758;28;19928;-67
2022/09/25 04:52:12;;;;;;;;;;;6.30;99.90;;;;;;5048401;28;20409;-68
2022/09/25 04:54:37;;;;;;;;;;;6.20;99.90;;;;;;5050171;28;20477;-67
2022/09/25 04:57:04;;;;;;;;;;;6.30;99.90;;;;;;5040096;28;19925;-68
2022/09/25 04:59:30;;;;;;;;;;;6.30;99.90;;;;;;5050193;28;19928;-68
2022/09/25 05:01:55;;;;;;;;;;;6.20;99.90;;;;;;5046971;28;19928;-67
2022/09/25 05:04:21;;;;;;;;;;;6.10;99.90;;;;;;5050402;28;20574;-67
2022/09/25 05:06:46;;;;;;;;;;;6.20;99.90;;;;;;5047783;28;19974;-68
2022/09/25 05:09:12;;;;;;;;;;;6.20;99.90;;;;;;5049821;28;19920;-67
2022/09/25 05:11:37;;;;;;;;;;;6.20;99.90;;;;;;5053119;28;20285;-67
2022/09/25 05:14:03;;;;;;;;;;;6.10;99.90;;;;;;5045306;28;19921;-68
2022/09/25 05:16:29;;;;;;;;;;;6.10;99.90;;;;;;5048418;28;19925;-67
2022/09/25 05:18:55;;;;;;;;;;;6.10;99.90;;;;;;5042112;28;20199;-67
2022/09/25 05:21:21;;;;;;;;;;;6.10;99.90;;;;;;5049439;28;19921;-67
2022/09/25 05:23:46;;;;;;;;;;;6.00;99.90;;;;;;5049341;28;20540;-67
2022/09/25 05:26:12;;;;;;;;;;;6.10;99.90;;;;;;5049819;28;19994;-67
2022/09/25 05:28:37;;;;;;;;;;;6.00;99.90;;;;;;5047070;28;20016;-68
2022/09/25 05:31:04;;;;;;;;;;;6.00;99.90;;;;;;5046378;28;19970;-68
2022/09/25 05:33:34;;;;;;;;;;;6.00;99.90;;;;;;5029949;28;19961;-67
2022/09/25 05:36:06;;;;;;;;;;;6.10;99.90;;;;;;5040706;28;19971;-67
2022/09/25 05:38:32;;;;;;;;;;;5.90;99.90;;;;;;5048938;28;19920;-67
2022/09/25 05:41:04;;;;;;;;;;;6.00;99.90;;;;;;5047619;28;20281;-67
2022/09/25 05:43:30;;;;;;;;;;;6.00;99.90;;;;;;5049675;28;19975;-67
2022/09/25 05:45:56;;;;;;;;;;;6.10;99.90;;;;;;5032682;28;19967;-67
2022/09/25 05:48:22;;;;;;;;;;;6.20;99.90;;;;;;5047073;28;19999;-67
2022/09/25 05:50:51;;;;;;;;;;;6.20;99.90;;;;;;5049232;28;20452;-67
2022/09/25 05:53:17;;;;;;;;;;;6.20;99.90;;;;;;5041749;28;19987;-68
2022/09/25 05:55:48;;;;;;;;;;;6.20;99.90;;;;;;5033876;28;19929;-67
2022/09/25 05:58:13;;;;;;;;;;;6.10;99.90;;;;;;5033812;28;19964;-67
2022/09/25 06:00:39;;;;;;;;;;;6.10;99.90;;;;;;5032817;28;19964;-68
2022/09/25 06:03:04;;;;;;;;;;;6.20;99.90;;;;;;5045434;28;19925;-68
2022/09/25 06:05:30;;;;;;;;;;;6.20;99.90;;;;;;5049791;28;20314;-67
2022/09/25 06:07:55;;;;;;;;;;;6.30;99.90;;;;;;5049376;28;19943;-68
2022/09/25 06:10:21;;;;;;;;;;;6.20;99.90;;;;;;5049992;28;20416;-68
2022/09/25 06:12:47;;;;;;;;;;;6.40;99.90;;;;;;5044756;28;20027;-67
2022/09/25 06:15:12;;;;;;;;;;;6.50;99.90;;;;;;5047119;28;19921;-68
2022/09/25 06:17:38;;;;;;;;;;;6.60;99.90;;;;;;5038054;28;20023;-68
2022/09/25 06:20:04;;;;;;;;;;;6.60;99.90;;;;;;5049276;28;20434;-68
2022/09/25 06:22:29;;;;;;;;;;;6.80;99.90;;;;;;5052475;28;19925;-69
2022/09/25 06:24:54;;;;;;;;;;;7.20;99.90;;;;;;5053501;28;19925;-67
2022/09/25 06:27:20;;;;;;;;;;;7.60;99.90;;;;;;5054696;28;20016;-68
2022/09/25 06:29:45;;;;;;;;;;;8.00;99.90;;;;;;5042596;28;20337;-68
2022/09/25 06:32:11;;;;;;;;;;;8.90;99.90;;;;;;5040907;28;20024;-68
2022/09/25 06:34:36;;;;;;;;;;;10.00;99.90;;;;;;5053083;28;19994;-68
2022/09/25 06:37:02;;;;;;;;;;;;;;;;;;5052367;28;20023;-69
2022/09/25 06:39:28;;;;;;;;;;;11.80;99.90;;;;;;5053170;28;19921;-67
2022/09/25 06:41:53;;;;;;;;;;;12.70;99.90;;;;;;5052631;28;20007;-69
2022/09/25 06:44:19;;;;;;;;;;;13.50;99.90;;;;;;5053302;28;20270;-68
2022/09/25 06:46:47;;;;;;;;;;;14.10;99.90;;;;;;5051401;28;19969;-68
2022/09/25 06:49:13;;;;;;;;;;;14.70;99.90;;;;;;5048044;28;19924;-69
2022/09/25 06:51:39;;;;;;;;;;;15.00;99.90;;;;;;5051769;28;19943;-69
2022/09/25 06:54:05;;;;;;;;;;;15.60;99.90;;;;;;5053124;28;20071;-69
2022/09/25 06:56:30;;;;;;;;;;;16.10;99.90;;;;;;5052818;28;19932;-69
2022/09/25 06:58:56;;;;;;;;;;;16.40;99.90;;;;;;5052174;28;20369;-69
2022/09/25 07:01:21;;;;;;;;;;;16.80;99.90;;;;;;5034684;28;19924;-69
2022/09/25 07:03:48;;;;;;;;;;;17.20;98.90;;;;;;5043907;28;19925;-69
2022/09/25 07:06:15;;;;;;;;;;;17.60;98.80;;;;;;5050519;28;20325;-69
2022/09/25 07:08:42;;;;;;;;;;;17.90;98.00;;;;;;5052606;28;19932;-69
2022/09/25 07:11:19;;;;;;;;;;;18.00;98.20;;;;;;5066235;28;20439;-67
2022/09/25 07:13:44;;;;;;;;;;;18.00;97.70;;;;;;5048785;28;19925;-68
2022/09/25 07:16:11;;;;;;;;;;;18.30;97.80;;;;;;5040280;28;19927;-68
2022/09/25 07:18:37;;;;;;;;;;;18.10;97.50;;;;;;5042479;28;20315;-68
2022/09/25 07:21:04;;;;;;;;;;;18.10;99.50;;;;;;5050039;28;19927;-68
2022/09/25 07:23:30;;;;;;;;;;;18.00;98.40;;;;;;5045846;28;19932;-68
2022/09/25 07:25:57;;;;;;;;;;;17.40;99.60;;;;;;5050301;28;19925;-68
2022/09/25 07:28:23;;;;;;;;;;;16.60;99.90;;;;;;5055008;28;20286;-68
2022/09/25 07:30:48;;;;;;;;;;;16.00;99.90;;;;;;5050430;28;19927;-68
2022/09/25 07:33:15;;;;;;;;;;;15.20;99.90;;;;;;5047296;28;19925;-68
2022/09/25 07:35:40;;;;;;;;;;;14.80;99.90;;;;;;5050148;28;19921;-68
2022/09/25 07:38:06;;;;;;;;;;;14.50;99.90;;;;;;5050376;28;19935;-68
2022/09/25 07:40:34;;;;;;;;;;;14.10;99.90;;;;;;5052516;28;19925;-68
2022/09/25 07:43:03;;;;;;;;;;;13.80;99.90;;;;;;5050565;28;19921;-68
2022/09/25 07:45:29;;;;;;;;;;;13.80;99.90;;;;;;5052136;28;20393;-68
2022/09/25 07:47:55;;;;;;;;;;;13.70;99.90;;;;;;5046501;28;19925;-68
2022/09/25 07:50:21;;;;;;;;;;;13.60;99.90;;;;;;5049988;28;20400;-68
2022/09/25 07:52:46;;;;;;;;;;;13.50;99.90;;;;;;5049742;28;19974;-68
2022/09/25 07:55:12;;;;;;;;;;;13.50;99.90;;;;;;5053462;28;19928;-68
2022/09/25 07:57:37;;;;;;;;;;;13.40;99.90;;;;;;5050807;28;19940;-68
2022/09/25 08:00:04;;;;;;;;;;;13.50;99.90;;;;;;5049691;28;20523;-67
2022/09/25 08:02:30;;;;;;;;;;;13.50;99.90;;;;;;5031728;28;20020;-68
2022/09/25 08:04:55;;;;;;;;;;;13.50;99.90;;;;;;5053145;28;20012;-68
2022/09/25 08:07:21;;;;;;;;;;;13.50;99.90;;;;;;5038446;28;19925;-69
2022/09/25 08:09:46;;;;;;;;;;;13.60;99.90;;;;;;5044687;28;19925;-68
2022/09/25 08:12:12;;;;;;;;;;;13.70;99.90;;;;;;5046877;28;20019;-69
2022/09/25 08:14:37;;;;;;;;;;;13.80;99.90;;;;;;5048649;28;20392;-68
2022/09/25 08:17:03;;;;;;;;;;;14.00;99.90;;;;;;5048246;28;19998;-68
2022/09/25 08:19:28;;;;;;;;;;;14.20;99.90;;;;;;5046535;28;20968;-69
2022/09/25 08:21:54;;;;;;;;;;;14.40;99.90;;;;;;5049813;28;19925;-70
2022/09/25 08:24:19;;;;;;;;;;;14.50;99.90;;;;;;5051479;28;19929;-69
2022/09/25 08:26:45;;;;;;;;;;;14.60;99.90;;;;;;5051833;28;19925;-70
2022/09/25 08:29:11;;;;;;;;;;;14.90;99.90;;;;;;5051434;28;20030;-69
2022/09/25 08:31:36;;;;;;;;;;;15.10;99.90;;;;;;5044982;28;19936;-69
2022/09/25 08:34:02;;;;;;;;;;;15.10;99.90;;;;;;5031651;28;19921;-70
2022/09/25 08:36:28;;;;;;;;;;;14.80;99.90;;;;;;5063037;28;19966;-69
2022/09/25 08:38:55;;;;;;;;;;;14.80;99.90;;;;;;5051205;28;19929;-70
2022/09/25 08:41:26;;;;;;;;;;;14.70;99.90;;;;;;5051679;28;19943;-70
2022/09/25 08:44:10;;;;;;;;;;;14.60;99.90;;;;;;5031421;28;19921;-70
2022/09/25 08:49:33;;;;;;;;;;;14.80;99.90;;;;;;5031146;28;19925;-70
2022/09/25 08:52:00;;;;;;;;;;;14.80;99.90;;;;;;5045563;28;20037;-70
2022/09/25 08:54:28;;;;;;;;;;;14.60;99.90;;;;;;5051106;28;19921;-69
2022/09/25 08:57:11;;;;;;;;;;;14.60;99.90;;;;;;5051133;28;19968;-70
2022/09/25 08:59:39;;;;;;;;;;;14.60;99.90;;;;;;5034727;28;19924;-69
2022/09/25 09:02:19;;;;;;;;;;;14.70;99.90;;;;;;5051308;28;19964;-69
2022/09/25 09:04:59;;;;;;;;;;;14.90;99.90;;;;;;5051075;28;19967;-69
2022/09/25 09:07:37;;;;;;;;;;;15.00;99.90;;;;;;5038487;28;19929;-70
2022/09/25 09:10:06;;;;;;;;;;;15.10;99.90;;;;;;5041704;28;20000;-70
2022/09/25 09:12:36;;;;;;;;;;;15.30;99.90;;;;;;5050717;28;19925;-70
2022/09/25 09:15:24;;;;;;;;;;;15.60;99.90;;;;;;5067189;28;19921;-70
2022/09/25 09:17:51;;;;;;;;;;;15.90;99.90;;;;;;5042242;28;20342;-70
2022/09/25 09:20:18;;;;;;;;;;;16.10;99.90;;;;;;5050741;28;19939;-70
2022/09/25 09:22:46;;;;;;;;;;;15.80;99.90;;;;;;5050644;28;19921;-70
2022/09/25 09:25:23;;;;;;;;;;;15.70;99.90;;;;;;5052014;28;20291;-70
2022/09/25 09:28:07;;;;;;;;;;;15.60;99.90;;;;;;5050133;28;20011;-69
2022/09/25 09:30:35;;;;;;;;;;;15.10;99.90;;;;;;5045022;28;19921;-70
2022/09/25 09:33:16;;;;;;;;;;;14.70;99.90;;;;;;5030306;28;20322;-69
2022/09/25 09:35:42;;;;;;;;;;;14.50;99.90;;;;;;5030373;28;19934;-69
2022/09/25 09:38:23;;;;;;;;;;;14.10;99.90;;;;;;5030879;28;19925;-69
2022/09/25 09:41:07;;;;;;;;;;;13.90;99.90;;;;;;5048187;28;19932;-69
2022/09/25 09:43:39;;;;;;;;;;;13.80;99.90;;;;;;5049100;28;19970;-69
2022/09/25 09:46:43;;;;;;;;;;;13.70;99.90;;;;;;5038979;28;19925;-69
2022/09/25 09:49:09;;;;;;;;;;;13.60;99.90;;;;;;4968267;28;19926;-69
2022/09/25 09:51:39;;;;;;;;;;;13.60;99.90;;;;;;4970378;28;19952;-69
2022/09/25 09:54:10;;;;;;;;;;;13.60;99.90;;;;;;5006798;28;19921;-69
2022/09/25 09:56:37;;;;;;;;;;;13.70;99.90;;;;;;5049901;28;19972;-69
2022/09/25 09:59:04;;;;;;;;;;;13.70;99.90;;;;;;5048686;28;19924;-68
2022/09/25 10:01:33;;;;;;;;;;;13.80;99.90;;;;;;5045294;28;20000;-69
2022/09/25 10:04:22;;;;;;;;;;;13.90;99.90;;;;;;5042106;28;20088;-69
2022/09/25 10:06:54;;;;;;;;;;;13.90;99.90;;;;;;5038673;28;19956;-69
2022/09/25 10:09:19;;;;;;;;;;;14.00;99.90;;;;;;5048979;28;19951;-69
2022/09/25 10:11:47;;;;;;;;;;;14.00;99.90;;;;;;5049365;28;19929;-69
2022/09/25 10:14:17;;;;;;;;;;;13.90;99.90;;;;;;5041252;28;19928;-69
2022/09/25 10:16:43;;;;;;;;;;;14.00;99.90;;;;;;5049080;28;20073;-69
2022/09/25 10:19:22;;;;;;;;;;;14.10;99.90;;;;;;5040619;28;19925;-69
2022/09/25 10:21:51;;;;;;;;;;;14.20;99.90;;;;;;5040628;28;19974;-69
2022/09/25 10:24:38;;;;;;;;;;;14.30;99.90;;;;;;5049441;28;20362;-69
2022/09/25 10:27:22;;;;;;;;;;;14.30;99.90;;;;;;5033300;28;19956;-69
2022/09/25 10:29:59;;;;;;;;;;;14.40;99.90;;;;;;5031192;28;20455;-69
2022/09/25 10:32:25;;;;;;;;;;;14.50;99.90;;;;;;5046597;28;19925;-69
2022/09/25 10:34:51;;;;;;;;;;;14.50;99.90;;;;;;5038816;28;19921;-69
2022/09/25 10:37:19;;;;;;;;;;;14.40;99.90;;;;;;5031641;28;20009;-70
2022/09/25 10:39:59;;;;;;;;;;;14.60;99.90;;;;;;5046002;28;20283;-69
2022/09/25 10:42:38;;;;;;;;;;;14.60;99.90;;;;;;5042307;28;19924;-69
2022/09/25 10:45:19;;;;;;;;;;;14.80;99.90;;;;;;5049968;28;19960;-69
2022/09/25 10:50:29;;;;;;;;;;;15.00;99.90;;;;;;5045991;28;19929;-69
2022/09/25 10:53:00;;;;;;;;;;;15.00;99.90;;;;;;5048613;28;19929;-69
2022/09/25 10:55:50;;;;;;;;;;;15.00;99.90;;;;;;5049632;28;19929;-69
2022/09/25 10:58:20;;;;;;;;;;;15.20;99.90;;;;;;5049726;28;19933;-69
2022/09/25 11:00:45;;;;;;;;;;;15.30;99.90;;;;;;5053311;28;19925;-69
2022/09/25 11:03:19;;;;;;;;;;;15.40;99.90;;;;;;5053305;28;20275;-69
2022/09/25 11:05:48;;;;;;;;;;;15.50;99.90;;;;;;5053454;28;20382;-69
2022/09/25 11:08:15;;;;;;;;;;;15.60;99.90;;;;;;5054676;28;19925;-70
2022/09/25 11:10:48;;;;;;;;;;;15.70;99.90;;;;;;5053114;28;19927;-70
2022/09/25 11:13:14;;;;;;;;;;;;;;;;;;5053207;28;19963;-70
2022/09/25 11:15:46;;;;;;;;;;;15.90;99.90;;;;;;5053001;28;20314;-69
2022/09/25 11:18:31;;;;;;;;;;;15.80;99.90;;;;;;5053303;28;19921;-69
2022/09/25 11:21:01;;;;;;;;;;;16.00;99.90;;;;;;5053281;28;19921;-69
2022/09/25 11:23:33;;;;;;;;;;;16.20;99.90;;;;;;5053133;28;19925;-69
2022/09/25 11:26:05;;;;;;;;;;;16.30;99.90;;;;;;5052930;28;19925;-70
2022/09/25 11:28:31;;;;;;;;;;;16.30;99.90;;;;;;5052912;28;19932;-69
2022/09/25 11:31:05;;;;;;;;;;;16.00;99.90;;;;;;5052766;28;19920;-69
2022/09/25 11:33:34;;;;;;;;;;;16.10;99.90;;;;;;5052174;28;20359;-70
2022/09/25 11:36:04;;;;;;;;;;;16.20;99.90;;;;;;5052642;28;19928;-69
2022/09/25 11:41:21;;;;;;;;;;;16.10;99.90;;;;;;5045241;28;20007;-69
2022/09/25 11:43:50;;;;;;;;;;;16.10;99.90;;;;;;5025326;28;20289;-70
2022/09/25 11:46:38;;;;;;;;;;;16.00;99.90;;;;;;5052243;28;19932;-70
2022/09/25 11:49:14;;;;;;;;;;;15.90;99.90;;;;;;5022680;28;19925;-69
2022/09/25 11:52:01;;;;;;;;;;;15.80;99.90;;;;;;5032560;28;19965;-69
2022/09/25 11:54:36;;;;;;;;;;;15.80;99.90;;;;;;5033819;28;19932;-69
2022/09/25 11:57:05;;;;;;;;;;;15.80;99.90;;;;;;5016192;28;19975;-69
2022/09/25 11:59:49;;;;;;;;;;;15.90;99.90;;;;;;5032898;28;19921;-69
2022/09/25 12:02:24;;;;;;;;;;;16.00;99.90;;;;;;5062329;28;19920;-69
2022/09/25 12:05:05;;;;;;;;;;;16.00;99.90;;;;;;5052258;28;19955;-70
2022/09/25 12:07:51;;;;;;;;;;;16.20;99.90;;;;;;5052187;28;20000;-70
2022/09/25 12:10:23;;;;;;;;;;;16.20;99.90;;;;;;5035406;28;19924;-69
2022/09/25 12:12:58;;;;;;;;;;;16.30;99.90;;;;;;5035461;28;19996;-70
2022/09/25 12:15:42;;;;;;;;;;;16.20;99.90;;;;;;5051997;28;20382;-69
2022/09/25 12:18:16;;;;;;;;;;;16.30;99.90;;;;;;5052055;28;20405;-70
2022/09/25 12:20:48;;;;;;;;;;;16.20;99.90;;;;;;5051808;28;19925;-69
2022/09/25 12:23:31;;;;;;;;;;;16.10;99.90;;;;;;5051124;28;19925;-69
2022/09/25 12:26:10;;;;;;;;;;;16.00;99.90;;;;;;5048775;28;20266;-69
2022/09/25 12:28:42;;;;;;;;;;;15.80;99.90;;;;;;5048620;28;19925;-69
2022/09/25 12:31:28;;;;;;;;;;;15.70;99.90;;;;;;5031806;28;19948;-69
2022/09/25 12:34:06;;;;;;;;;;;15.60;99.90;;;;;;5032871;28;19990;-70
2022/09/25 12:36:40;;;;;;;;;;;15.40;99.90;;;;;;5052054;28;20362;-70
2022/09/25 12:39:25;;;;;;;;;;;15.50;99.90;;;;;;5016454;28;20029;-69
2022/09/25 12:41:54;;;;;;;;;;;15.60;99.90;;;;;;5039208;28;19925;-69
2022/09/25 12:44:26;;;;;;;;;;;15.80;99.90;;;;;;5050727;28;19935;-70
2022/09/25 12:46:55;;;;;;;;;;;15.90;99.90;;;;;;5049764;28;19924;-70
2022/09/25 12:49:23;;;;;;;;;;;16.20;99.90;;;;;;5051652;28;19940;-70
2022/09/25 12:51:50;;;;;;;;;;;16.40;99.90;;;;;;5052046;28;20390;-70
2022/09/25 12:54:18;;;;;;;;;;;16.60;99.90;;;;;;5050174;28;19978;-70
2022/09/25 12:57:02;;;;;;;;;;;16.90;99.90;;;;;;5048953;28;19951;-70
2022/09/25 12:59:34;;;;;;;;;;;17.10;99.90;;;;;;5051783;28;19925;-70
2022/09/25 13:02:03;;;;;;;;;;;17.30;99.90;;;;;;5050214;28;19967;-70
2022/09/25 13:05:01;;;;;;;;;;;17.10;99.90;;;;;;5051181;28;19921;-70
2022/09/25 13:07:45;;;;;;;;;;;17.00;99.90;;;;;;5017057;28;19944;-70
2022/09/25 13:10:18;;;;;;;;;;;17.10;99.90;;;;;;5050910;28;19921;-70
2022/09/25 13:12:44;;;;;;;;;;;17.20;99.90;;;;;;5048346;28;19974;-70
2022/09/25 13:15:12;;;;;;;;;;;17.40;99.90;;;;;;5051098;28;19921;-70
2022/09/25 13:17:37;;;;;;;;;;;17.40;99.90;;;;;;5051217;28;20244;-70
2022/09/25 13:20:22;;;;;;;;;;;17.40;99.90;;;;;;5051096;28;19935;-70
2022/09/25 13:22:47;;;;;;;;;;;17.30;99.90;;;;;;5050431;28;19920;-70
2022/09/25 13:25:14;;;;;;;;;;;17.00;99.90;;;;;;5050773;28;19924;-70
2022/09/25 13:27:42;;;;;;;;;;;17.00;99.90;;;;;;5067211;28;19920;-70
2022/09/25 13:30:19;;;;;;;;;;;17.00;99.90;;;;;;5050585;28;19921;-70
2022/09/25 13:32:47;;;;;;;;;;;17.20;99.90;;;;;;5050499;28;19928;-70
2022/09/25 13:35:16;;;;;;;;;;;17.00;99.30;;;;;;5052065;28;19920;-70
2022/09/25 13:37:41;;;;;;;;;;;17.10;99.90;;;;;;5051313;28;19928;-70
2022/09/25 13:43:22;;;;;;;;;;;16.80;99.90;;;;;;5048480;28;19921;-70
2022/09/25 13:46:08;;;;;;;;;;;16.80;99.80;;;;;;5048168;28;19928;-70
2022/09/25 13:48:35;;;;;;;;;;;16.90;99.60;;;;;;5048101;28;19924;-70
2022/09/25 13:51:24;;;;;;;;;;;16.90;98.80;;;;;;5033624;28;20404;-70
2022/09/25 13:53:50;;;;;;;;;;;16.90;99.50;;;;;;5049726;28;20286;-70
2022/09/25 13:56:20;;;;;;;;;;;16.90;99.90;;;;;;5050431;28;19929;-70
2022/09/25 13:58:58;;;;;;;;;;;16.80;99.90;;;;;;5050293;28;19931;-70
2022/09/25 14:01:36;;;;;;;;;;;16.70;99.90;;;;;;5048131;28;20305;-69
2022/09/25 14:04:28;;;;;;;;;;;16.50;99.90;;;;;;5046148;28;19925;-70
2022/09/25 14:07:01;;;;;;;;;;;16.30;99.90;;;;;;5047064;28;20015;-70
2022/09/25 14:09:28;;;;;;;;;;;16.00;98.60;;;;;;5032063;28;19921;-70
2022/09/25 14:12:00;;;;;;;;;;;16.00;98.20;;;;;;5047617;28;20035;-70
2022/09/25 14:14:28;;;;;;;;;;;16.00;99.20;;;;;;5049133;28;19987;-70
2022/09/25 14:16:57;;;;;;;;;;;16.00;99.00;;;;;;5045450;28;20011;-69
2022/09/25 14:19:29;;;;;;;;;;;16.00;99.90;;;;;;5044065;28;20460;-71
2022/09/25 14:21:56;;;;;;;;;;;16.00;99.90;;;;;;5045397;28;19925;-70
2022/09/25 14:24:27;;;;;;;;;;;16.00;99.90;;;;;;5047879;28;19956;-69
2022/09/25 14:26:54;;;;;;;;;;;16.00;99.90;;;;;;5031305;28;19928;-70
2022/09/25 14:29:38;;;;;;;;;;;16.00;99.90;;;;;;5046835;28;19921;-70
2022/09/25 14:32:16;;;;;;;;;;;16.10;99.90;;;;;;5049421;28;19925;-69
2022/09/25 14:34:48;;;;;;;;;;;16.10;99.60;;;;;;5050056;28;19925;-69
2022/09/25 14:37:35;;;;;;;;;;;16.20;99.90;;;;;;5051335;28;19921;-70
2022/09/25 14:40:12;;;;;;;;;;;16.20;99.90;;;;;;5037581;28;19921;-69
2022/09/25 14:42:52;;;;;;;;;;;16.20;99.90;;;;;;5043297;28;19925;-70
2022/09/25 14:45:24;;;;;;;;;;;16.30;99.90;;;;;;5048755;28;19932;-69
2022/09/25 14:47:51;;;;;;;;;;;16.30;99.90;;;;;;5048875;28;20290;-69
2022/09/25 14:50:18;;;;;;;;;;;16.30;99.90;;;;;;5049496;28;19932;-69
2022/09/25 14:52:44;;;;;;;;;;;16.30;99.90;;;;;;5044149;28;19924;-69
2022/09/25 14:55:14;;;;;;;;;;;16.20;99.90;;;;;;5035484;28;19978;-70
2022/09/25 14:57:40;;;;;;;;;;;16.20;99.90;;;;;;5046927;28;20376;-70